sensor_id;sensor_type;location;lat;lon;timestamp;P1;durP1;ratioP1;P2;durP2;ratioP2
13571;SDS011;6857;53.484;10.216;2024-01-10T00:01:48;16.23;;;8.97;;
13571;SDS011;6857;53.484;10.216;2024-01-10T00:04:14;16.37;;;8.77;;
13571;SDS011;6857;53.484;10.216;2024-01-10T00:06:41;16.43;;;9.10;;
13571;SDS011;6857;53.484;10.216;2024-01-10T00:09:07;20.23;;;10.03;;
13571;SDS011;6857;53.484;10.216;2024-01-10T00:11:33;20.03;;;10.27;;
13571;SDS011;6857;53.484;10.216;2024-01-10T00:13:59;13.83;;;8.40;;
13571;SDS011;6857;53.484;10.216;2024-01-10T00:16:27;15.73;;;9.07;;
13571;SDS011;6857;53.484;10.216;2024-01-10T00:18:53;14.03;;;9.13;;
13571;SDS011;6857;53.484;10.216;2024-01-10T00:21:18;17.43;;;8.80;;
13571;SDS011;6857;53.484;10.216;2024-01-10T00:23:44;18.00;;;9.57;;
13571;SDS011;6857;53.484;10.216;2024-01-10T00:26:09;16.87;;;9.27;;
13571;SDS011;6857;53.484;10.216;2024-01-10T00:28:35;15.13;;;8.60;;
13571;SDS011;6857;53.484;10.216;2024-01-10T00:31:01;16.23;;;8.83;;
13571;SDS011;6857;53.484;10.216;2024-01-10T00:33:26;18.87;;;10.27;;
13571;SDS011;6857;53.484;10.216;2024-01-10T00:35:52;20.37;;;9.83;;
13571;SDS011;6857;53.484;10.216;2024-01-10T00:38:17;19.53;;;9.03;;
13571;SDS011;6857;53.484;10.216;2024-01-10T00:40:43;20.27;;;10.67;;
13571;SDS011;6857;53.484;10.216;2024-01-10T00:43:08;20.80;;;10.90;;
13571;SDS011;6857;53.484;10.216;2024-01-10T00:45:34;20.73;;;11.30;;
13571;SDS011;6857;53.484;10.216;2024-01-10T00:47:59;22.93;;;11.93;;
13571;SDS011;6857;53.484;10.216;2024-01-10T00:50:25;22.53;;;12.83;;
13571;SDS011;6857;53.484;10.216;2024-01-10T00:52:50;23.20;;;13.03;;
13571;SDS011;6857;53.484;10.216;2024-01-10T00:55:16;24.93;;;13.43;;
13571;SDS011;6857;53.484;10.216;2024-01-10T00:57:41;22.97;;;12.67;;
13571;SDS011;6857;53.484;10.216;2024-01-10T01:00:07;21.87;;;12.20;;
13571;SDS011;6857;53.484;10.216;2024-01-10T01:02:34;27.97;;;13.10;;
13571;SDS011;6857;53.484;10.216;2024-01-10T01:05:00;22.23;;;12.80;;
13571;SDS011;6857;53.484;10.216;2024-01-10T01:07:27;23.10;;;11.93;;
13571;SDS011;6857;53.484;10.216;2024-01-10T01:09:52;21.03;;;11.37;;
13571;SDS011;6857;53.484;10.216;2024-01-10T01:12:18;25.97;;;11.73;;
13571;SDS011;6857;53.484;10.216;2024-01-10T01:14:43;20.07;;;11.20;;
13571;SDS011;6857;53.484;10.216;2024-01-10T01:17:09;21.40;;;12.27;;
13571;SDS011;6857;53.484;10.216;2024-01-10T01:19:35;23.63;;;11.97;;
13571;SDS011;6857;53.484;10.216;2024-01-10T01:22:00;20.40;;;11.47;;
13571;SDS011;6857;53.484;10.216;2024-01-10T01:24:26;20.60;;;10.93;;
13571;SDS011;6857;53.484;10.216;2024-01-10T01:26:51;19.17;;;10.77;;
13571;SDS011;6857;53.484;10.216;2024-01-10T01:29:17;23.97;;;10.40;;
13571;SDS011;6857;53.484;10.216;2024-01-10T01:31:43;14.67;;;9.23;;
13571;SDS011;6857;53.484;10.216;2024-01-10T01:34:08;16.80;;;8.90;;
13571;SDS011;6857;53.484;10.216;2024-01-10T01:36:34;15.50;;;8.77;;
13571;SDS011;6857;53.484;10.216;2024-01-10T01:38:59;20.17;;;9.83;;
13571;SDS011;6857;53.484;10.216;2024-01-10T01:41:25;18.43;;;9.37;;
13571;SDS011;6857;53.484;10.216;2024-01-10T01:43:51;17.90;;;9.53;;
13571;SDS011;6857;53.484;10.216;2024-01-10T01:46:16;18.17;;;9.13;;
13571;SDS011;6857;53.484;10.216;2024-01-10T01:48:42;17.07;;;9.43;;
13571;SDS011;6857;53.484;10.216;2024-01-10T01:51:08;17.13;;;9.30;;
13571;SDS011;6857;53.484;10.216;2024-01-10T01:53:36;14.90;;;7.50;;
13571;SDS011;6857;53.484;10.216;2024-01-10T01:56:03;17.80;;;9.17;;
13571;SDS011;6857;53.484;10.216;2024-01-10T01:58:31;20.30;;;10.30;;
13571;SDS011;6857;53.484;10.216;2024-01-10T02:00:58;22.30;;;10.80;;
13571;SDS011;6857;53.484;10.216;2024-01-10T02:03:24;19.67;;;11.50;;
13571;SDS011;6857;53.484;10.216;2024-01-10T02:05:51;22.20;;;12.00;;
13571;SDS011;6857;53.484;10.216;2024-01-10T02:08:17;20.80;;;10.80;;
13571;SDS011;6857;53.484;10.216;2024-01-10T02:10:42;18.20;;;10.03;;
13571;SDS011;6857;53.484;10.216;2024-01-10T02:13:08;19.37;;;10.73;;
13571;SDS011;6857;53.484;10.216;2024-01-10T02:15:36;12.93;;;8.00;;
13571;SDS011;6857;53.484;10.216;2024-01-10T02:18:02;15.20;;;8.50;;
13571;SDS011;6857;53.484;10.216;2024-01-10T02:20:30;12.67;;;7.67;;
13571;SDS011;6857;53.484;10.216;2024-01-10T02:22:56;17.03;;;8.70;;
13571;SDS011;6857;53.484;10.216;2024-01-10T02:25:21;16.00;;;7.80;;
13571;SDS011;6857;53.484;10.216;2024-01-10T02:27:47;13.97;;;7.40;;
13571;SDS011;6857;53.484;10.216;2024-01-10T02:30:13;13.80;;;6.87;;
13571;SDS011;6857;53.484;10.216;2024-01-10T02:32:39;15.43;;;7.57;;
13571;SDS011;6857;53.484;10.216;2024-01-10T02:35:05;15.07;;;7.90;;
13571;SDS011;6857;53.484;10.216;2024-01-10T02:37:31;13.47;;;7.17;;
13571;SDS011;6857;53.484;10.216;2024-01-10T02:39:57;15.70;;;7.93;;
13571;SDS011;6857;53.484;10.216;2024-01-10T02:42:22;18.47;;;8.10;;
13571;SDS011;6857;53.484;10.216;2024-01-10T02:44:48;14.30;;;7.57;;
13571;SDS011;6857;53.484;10.216;2024-01-10T02:47:13;15.73;;;8.40;;
13571;SDS011;6857;53.484;10.216;2024-01-10T02:49:39;13.17;;;7.27;;
13571;SDS011;6857;53.484;10.216;2024-01-10T02:52:05;15.33;;;8.00;;
13571;SDS011;6857;53.484;10.216;2024-01-10T02:54:30;14.20;;;6.90;;
13571;SDS011;6857;53.484;10.216;2024-01-10T02:56:56;11.87;;;7.60;;
13571;SDS011;6857;53.484;10.216;2024-01-10T02:59:22;15.83;;;8.30;;
13571;SDS011;6857;53.484;10.216;2024-01-10T03:01:47;26.97;;;11.33;;
13571;SDS011;6857;53.484;10.216;2024-01-10T03:04:13;26.33;;;13.03;;
13571;SDS011;6857;53.484;10.216;2024-01-10T03:06:39;29.60;;;12.70;;
13571;SDS011;6857;53.484;10.216;2024-01-10T03:09:04;27.33;;;13.07;;
13571;SDS011;6857;53.484;10.216;2024-01-10T03:11:30;16.60;;;8.43;;
13571;SDS011;6857;53.484;10.216;2024-01-10T03:14:01;14.60;;;7.77;;
13571;SDS011;6857;53.484;10.216;2024-01-10T03:16:29;16.20;;;7.67;;
13571;SDS011;6857;53.484;10.216;2024-01-10T03:18:55;14.07;;;7.13;;
13571;SDS011;6857;53.484;10.216;2024-01-10T03:21:20;13.27;;;7.90;;
13571;SDS011;6857;53.484;10.216;2024-01-10T03:23:50;10.97;;;7.00;;
13571;SDS011;6857;53.484;10.216;2024-01-10T03:26:15;16.50;;;7.33;;
13571;SDS011;6857;53.484;10.216;2024-01-10T03:28:41;14.23;;;7.63;;
13571;SDS011;6857;53.484;10.216;2024-01-10T03:31:06;13.77;;;7.60;;
13571;SDS011;6857;53.484;10.216;2024-01-10T03:33:32;13.57;;;8.10;;
13571;SDS011;6857;53.484;10.216;2024-01-10T03:35:57;14.23;;;7.27;;
13571;SDS011;6857;53.484;10.216;2024-01-10T03:38:23;13.93;;;7.47;;
13571;SDS011;6857;53.484;10.216;2024-01-10T03:40:49;11.83;;;6.97;;
13571;SDS011;6857;53.484;10.216;2024-01-10T03:43:14;15.33;;;7.77;;
13571;SDS011;6857;53.484;10.216;2024-01-10T03:45:41;15.67;;;7.47;;
13571;SDS011;6857;53.484;10.216;2024-01-10T03:48:07;13.60;;;7.63;;
13571;SDS011;6857;53.484;10.216;2024-01-10T03:50:33;16.53;;;9.57;;
13571;SDS011;6857;53.484;10.216;2024-01-10T03:52:58;15.27;;;8.33;;
13571;SDS011;6857;53.484;10.216;2024-01-10T03:55:24;13.40;;;7.63;;
13571;SDS011;6857;53.484;10.216;2024-01-10T03:57:49;11.10;;;6.97;;
13571;SDS011;6857;53.484;10.216;2024-01-10T04:00:15;12.53;;;7.07;;
13571;SDS011;6857;53.484;10.216;2024-01-10T04:02:41;14.03;;;7.60;;
13571;SDS011;6857;53.484;10.216;2024-01-10T04:05:07;12.10;;;6.90;;
13571;SDS011;6857;53.484;10.216;2024-01-10T04:07:39;13.77;;;7.77;;
13571;SDS011;6857;53.484;10.216;2024-01-10T04:10:06;13.27;;;7.17;;
13571;SDS011;6857;53.484;10.216;2024-01-10T04:12:35;11.17;;;6.80;;
13571;SDS011;6857;53.484;10.216;2024-01-10T04:15:04;11.30;;;7.30;;
13571;SDS011;6857;53.484;10.216;2024-01-10T04:17:30;15.27;;;7.80;;
13571;SDS011;6857;53.484;10.216;2024-01-10T04:19:56;15.03;;;7.87;;
13571;SDS011;6857;53.484;10.216;2024-01-10T04:22:23;15.07;;;7.53;;
13571;SDS011;6857;53.484;10.216;2024-01-10T04:24:49;15.70;;;8.27;;
13571;SDS011;6857;53.484;10.216;2024-01-10T04:27:15;14.53;;;7.63;;
13571;SDS011;6857;53.484;10.216;2024-01-10T04:29:40;18.70;;;9.33;;
13571;SDS011;6857;53.484;10.216;2024-01-10T04:32:06;13.50;;;8.13;;
13571;SDS011;6857;53.484;10.216;2024-01-10T04:34:32;14.10;;;8.23;;
13571;SDS011;6857;53.484;10.216;2024-01-10T04:36:58;16.33;;;8.33;;
13571;SDS011;6857;53.484;10.216;2024-01-10T04:39:24;18.90;;;9.03;;
13571;SDS011;6857;53.484;10.216;2024-01-10T04:41:50;15.50;;;8.33;;
13571;SDS011;6857;53.484;10.216;2024-01-10T04:44:15;14.40;;;7.20;;
13571;SDS011;6857;53.484;10.216;2024-01-10T04:46:41;18.23;;;9.23;;
13571;SDS011;6857;53.484;10.216;2024-01-10T04:49:07;17.07;;;8.50;;
13571;SDS011;6857;53.484;10.216;2024-01-10T04:51:33;16.27;;;7.87;;
13571;SDS011;6857;53.484;10.216;2024-01-10T04:53:58;15.97;;;8.07;;
13571;SDS011;6857;53.484;10.216;2024-01-10T04:56:24;16.07;;;8.10;;
13571;SDS011;6857;53.484;10.216;2024-01-10T04:58:50;14.80;;;7.80;;
13571;SDS011;6857;53.484;10.216;2024-01-10T05:01:16;14.17;;;7.83;;
13571;SDS011;6857;53.484;10.216;2024-01-10T05:03:42;11.57;;;7.67;;
13571;SDS011;6857;53.484;10.216;2024-01-10T05:06:07;16.60;;;9.30;;
13571;SDS011;6857;53.484;10.216;2024-01-10T05:08:33;15.73;;;7.40;;
13571;SDS011;6857;53.484;10.216;2024-01-10T05:10:58;16.23;;;8.83;;
13571;SDS011;6857;53.484;10.216;2024-01-10T05:13:24;15.63;;;8.50;;
13571;SDS011;6857;53.484;10.216;2024-01-10T05:15:49;16.67;;;8.47;;
13571;SDS011;6857;53.484;10.216;2024-01-10T05:18:16;15.43;;;7.97;;
13571;SDS011;6857;53.484;10.216;2024-01-10T05:20:42;16.83;;;8.30;;
13571;SDS011;6857;53.484;10.216;2024-01-10T05:23:07;16.43;;;9.00;;
13571;SDS011;6857;53.484;10.216;2024-01-10T05:25:33;18.07;;;9.20;;
13571;SDS011;6857;53.484;10.216;2024-01-10T05:27:58;15.67;;;8.53;;
13571;SDS011;6857;53.484;10.216;2024-01-10T05:30:24;21.63;;;9.10;;
13571;SDS011;6857;53.484;10.216;2024-01-10T05:32:50;13.17;;;7.43;;
13571;SDS011;6857;53.484;10.216;2024-01-10T05:35:16;16.20;;;8.40;;
13571;SDS011;6857;53.484;10.216;2024-01-10T05:37:41;15.23;;;8.87;;
13571;SDS011;6857;53.484;10.216;2024-01-10T05:40:07;14.20;;;7.70;;
13571;SDS011;6857;53.484;10.216;2024-01-10T05:42:33;13.37;;;8.00;;
13571;SDS011;6857;53.484;10.216;2024-01-10T05:44:59;15.27;;;7.87;;
13571;SDS011;6857;53.484;10.216;2024-01-10T05:47:27;16.03;;;8.90;;
13571;SDS011;6857;53.484;10.216;2024-01-10T05:49:53;16.67;;;8.57;;
13571;SDS011;6857;53.484;10.216;2024-01-10T05:52:19;17.83;;;8.87;;
13571;SDS011;6857;53.484;10.216;2024-01-10T05:54:45;20.20;;;9.87;;
13571;SDS011;6857;53.484;10.216;2024-01-10T05:57:13;14.70;;;8.60;;
13571;SDS011;6857;53.484;10.216;2024-01-10T05:59:39;15.77;;;8.50;;
13571;SDS011;6857;53.484;10.216;2024-01-10T06:02:04;17.00;;;8.33;;
13571;SDS011;6857;53.484;10.216;2024-01-10T06:04:30;17.20;;;8.37;;
13571;SDS011;6857;53.484;10.216;2024-01-10T06:06:59;16.47;;;9.03;;
13571;SDS011;6857;53.484;10.216;2024-01-10T06:09:26;15.80;;;8.83;;
13571;SDS011;6857;53.484;10.216;2024-01-10T06:11:51;19.67;;;9.70;;
13571;SDS011;6857;53.484;10.216;2024-01-10T06:14:17;18.57;;;9.27;;
13571;SDS011;6857;53.484;10.216;2024-01-10T06:16:43;17.57;;;9.53;;
13571;SDS011;6857;53.484;10.216;2024-01-10T06:19:10;20.80;;;9.97;;
13571;SDS011;6857;53.484;10.216;2024-01-10T06:21:38;17.73;;;9.23;;
13571;SDS011;6857;53.484;10.216;2024-01-10T06:24:04;18.13;;;8.13;;
13571;SDS011;6857;53.484;10.216;2024-01-10T06:26:30;20.50;;;9.90;;
13571;SDS011;6857;53.484;10.216;2024-01-10T06:28:55;22.30;;;9.97;;
13571;SDS011;6857;53.484;10.216;2024-01-10T06:31:21;20.23;;;9.90;;
13571;SDS011;6857;53.484;10.216;2024-01-10T06:33:47;18.00;;;9.17;;
13571;SDS011;6857;53.484;10.216;2024-01-10T06:36:12;21.43;;;9.33;;
13571;SDS011;6857;53.484;10.216;2024-01-10T06:38:38;20.07;;;9.40;;
13571;SDS011;6857;53.484;10.216;2024-01-10T06:41:08;19.43;;;10.03;;
13571;SDS011;6857;53.484;10.216;2024-01-10T06:43:34;18.33;;;9.37;;
13571;SDS011;6857;53.484;10.216;2024-01-10T06:46:00;17.27;;;8.73;;
13571;SDS011;6857;53.484;10.216;2024-01-10T06:48:25;17.93;;;9.93;;
13571;SDS011;6857;53.484;10.216;2024-01-10T06:50:51;18.30;;;9.83;;
13571;SDS011;6857;53.484;10.216;2024-01-10T06:53:17;19.73;;;9.63;;
13571;SDS011;6857;53.484;10.216;2024-01-10T06:55:43;21.60;;;9.97;;
13571;SDS011;6857;53.484;10.216;2024-01-10T06:58:08;18.07;;;9.83;;
13571;SDS011;6857;53.484;10.216;2024-01-10T07:00:34;20.07;;;10.80;;
13571;SDS011;6857;53.484;10.216;2024-01-10T07:03:02;21.60;;;10.03;;
13571;SDS011;6857;53.484;10.216;2024-01-10T07:05:28;18.80;;;10.20;;
13571;SDS011;6857;53.484;10.216;2024-01-10T07:07:54;15.73;;;8.10;;
13571;SDS011;6857;53.484;10.216;2024-01-10T07:10:19;20.33;;;10.27;;
13571;SDS011;6857;53.484;10.216;2024-01-10T07:12:45;18.97;;;9.13;;
13571;SDS011;6857;53.484;10.216;2024-01-10T07:15:11;16.50;;;9.03;;
13571;SDS011;6857;53.484;10.216;2024-01-10T07:17:37;16.73;;;8.80;;
13571;SDS011;6857;53.484;10.216;2024-01-10T07:20:03;17.67;;;9.43;;
13571;SDS011;6857;53.484;10.216;2024-01-10T07:22:30;19.57;;;9.43;;
13571;SDS011;6857;53.484;10.216;2024-01-10T07:24:57;20.33;;;9.10;;
13571;SDS011;6857;53.484;10.216;2024-01-10T07:27:22;18.40;;;9.33;;
13571;SDS011;6857;53.484;10.216;2024-01-10T07:29:48;20.33;;;10.60;;
13571;SDS011;6857;53.484;10.216;2024-01-10T07:32:13;18.53;;;9.73;;
13571;SDS011;6857;53.484;10.216;2024-01-10T07:34:39;15.50;;;9.00;;
13571;SDS011;6857;53.484;10.216;2024-01-10T07:37:05;14.57;;;8.20;;
13571;SDS011;6857;53.484;10.216;2024-01-10T07:39:30;14.40;;;8.20;;
13571;SDS011;6857;53.484;10.216;2024-01-10T07:41:56;14.13;;;7.67;;
13571;SDS011;6857;53.484;10.216;2024-01-10T07:44:22;14.10;;;8.67;;
13571;SDS011;6857;53.484;10.216;2024-01-10T07:46:48;26.77;;;10.07;;
13571;SDS011;6857;53.484;10.216;2024-01-10T07:49:15;23.57;;;9.30;;
13571;SDS011;6857;53.484;10.216;2024-01-10T07:51:42;11.27;;;6.67;;
13571;SDS011;6857;53.484;10.216;2024-01-10T07:54:07;14.53;;;7.40;;
13571;SDS011;6857;53.484;10.216;2024-01-10T07:56:33;13.13;;;7.40;;
13571;SDS011;6857;53.484;10.216;2024-01-10T07:58:58;14.13;;;7.70;;
13571;SDS011;6857;53.484;10.216;2024-01-10T08:01:24;17.00;;;8.53;;
13571;SDS011;6857;53.484;10.216;2024-01-10T08:03:49;12.20;;;7.07;;
13571;SDS011;6857;53.484;10.216;2024-01-10T08:06:15;14.53;;;7.40;;
13571;SDS011;6857;53.484;10.216;2024-01-10T08:08:40;14.27;;;7.27;;
13571;SDS011;6857;53.484;10.216;2024-01-10T08:11:06;13.87;;;7.83;;
13571;SDS011;6857;53.484;10.216;2024-01-10T08:13:32;16.87;;;7.57;;
13571;SDS011;6857;53.484;10.216;2024-01-10T08:15:57;18.23;;;7.70;;
13571;SDS011;6857;53.484;10.216;2024-01-10T08:18:23;37.73;;;12.70;;
13571;SDS011;6857;53.484;10.216;2024-01-10T08:20:48;17.47;;;7.97;;
13571;SDS011;6857;53.484;10.216;2024-01-10T08:23:14;13.33;;;7.30;;
13571;SDS011;6857;53.484;10.216;2024-01-10T08:25:39;11.60;;;6.50;;
13571;SDS011;6857;53.484;10.216;2024-01-10T08:28:06;9.17;;;5.57;;
13571;SDS011;6857;53.484;10.216;2024-01-10T08:30:31;13.27;;;6.20;;
13571;SDS011;6857;53.484;10.216;2024-01-10T08:32:57;12.20;;;6.33;;
13571;SDS011;6857;53.484;10.216;2024-01-10T08:35:24;11.17;;;6.23;;
13571;SDS011;6857;53.484;10.216;2024-01-10T08:37:49;12.20;;;6.67;;
13571;SDS011;6857;53.484;10.216;2024-01-10T08:40:15;9.67;;;6.13;;
13571;SDS011;6857;53.484;10.216;2024-01-10T08:42:42;11.17;;;6.17;;
13571;SDS011;6857;53.484;10.216;2024-01-10T08:45:07;12.13;;;6.33;;
13571;SDS011;6857;53.484;10.216;2024-01-10T08:47:35;12.53;;;6.47;;
13571;SDS011;6857;53.484;10.216;2024-01-10T08:50:02;12.50;;;6.60;;
13571;SDS011;6857;53.484;10.216;2024-01-10T08:52:29;14.13;;;7.27;;
13571;SDS011;6857;53.484;10.216;2024-01-10T08:54:56;10.73;;;5.77;;
13571;SDS011;6857;53.484;10.216;2024-01-10T08:57:21;14.83;;;7.23;;
13571;SDS011;6857;53.484;10.216;2024-01-10T08:59:47;14.63;;;7.00;;
13571;SDS011;6857;53.484;10.216;2024-01-10T09:02:13;15.20;;;7.27;;
13571;SDS011;6857;53.484;10.216;2024-01-10T09:04:39;15.67;;;7.60;;
13571;SDS011;6857;53.484;10.216;2024-01-10T09:07:04;12.40;;;6.43;;
13571;SDS011;6857;53.484;10.216;2024-01-10T09:09:30;15.57;;;7.47;;
13571;SDS011;6857;53.484;10.216;2024-01-10T09:11:56;15.70;;;7.33;;
13571;SDS011;6857;53.484;10.216;2024-01-10T09:14:21;11.83;;;6.37;;
13571;SDS011;6857;53.484;10.216;2024-01-10T09:16:47;12.47;;;6.63;;
13571;SDS011;6857;53.484;10.216;2024-01-10T09:19:13;12.20;;;6.93;;
13571;SDS011;6857;53.484;10.216;2024-01-10T09:21:38;14.13;;;6.97;;
13571;SDS011;6857;53.484;10.216;2024-01-10T09:24:04;11.70;;;6.20;;
13571;SDS011;6857;53.484;10.216;2024-01-10T09:26:33;9.40;;;5.80;;
13571;SDS011;6857;53.484;10.216;2024-01-10T09:28:59;12.13;;;6.23;;
13571;SDS011;6857;53.484;10.216;2024-01-10T09:31:25;10.87;;;6.23;;
13571;SDS011;6857;53.484;10.216;2024-01-10T09:33:50;14.53;;;7.33;;
13571;SDS011;6857;53.484;10.216;2024-01-10T09:36:16;12.53;;;6.30;;
13571;SDS011;6857;53.484;10.216;2024-01-10T09:38:42;12.80;;;6.93;;
13571;SDS011;6857;53.484;10.216;2024-01-10T09:41:07;19.93;;;7.77;;
13571;SDS011;6857;53.484;10.216;2024-01-10T09:43:35;11.63;;;6.00;;
13571;SDS011;6857;53.484;10.216;2024-01-10T09:46:00;13.87;;;7.13;;
13571;SDS011;6857;53.484;10.216;2024-01-10T09:48:29;16.90;;;7.93;;
13571;SDS011;6857;53.484;10.216;2024-01-10T09:50:56;27.57;;;9.43;;
13571;SDS011;6857;53.484;10.216;2024-01-10T09:53:22;9.80;;;5.80;;
13571;SDS011;6857;53.484;10.216;2024-01-10T09:55:49;17.43;;;8.73;;
13571;SDS011;6857;53.484;10.216;2024-01-10T09:58:14;12.53;;;6.83;;
13571;SDS011;6857;53.484;10.216;2024-01-10T10:00:40;13.00;;;6.77;;
13571;SDS011;6857;53.484;10.216;2024-01-10T10:03:10;12.30;;;6.17;;
13571;SDS011;6857;53.484;10.216;2024-01-10T10:05:37;15.07;;;7.20;;
13571;SDS011;6857;53.484;10.216;2024-01-10T10:08:03;19.13;;;9.57;;
13571;SDS011;6857;53.484;10.216;2024-01-10T10:10:32;14.33;;;6.97;;
13571;SDS011;6857;53.484;10.216;2024-01-10T10:12:57;19.17;;;8.60;;
13571;SDS011;6857;53.484;10.216;2024-01-10T10:15:23;15.57;;;7.50;;
13571;SDS011;6857;53.484;10.216;2024-01-10T10:17:52;21.83;;;8.90;;
13571;SDS011;6857;53.484;10.216;2024-01-10T10:20:22;15.77;;;7.67;;
13571;SDS011;6857;53.484;10.216;2024-01-10T10:25:26;9.13;;;5.57;;
13571;SDS011;6857;53.484;10.216;2024-01-10T10:27:59;9.93;;;5.87;;
13571;SDS011;6857;53.484;10.216;2024-01-10T10:30:26;10.40;;;5.83;;
13571;SDS011;6857;53.484;10.216;2024-01-10T10:32:52;11.17;;;5.70;;
13571;SDS011;6857;53.484;10.216;2024-01-10T10:35:18;13.73;;;6.90;;
13571;SDS011;6857;53.484;10.216;2024-01-10T10:37:45;11.53;;;6.60;;
13571;SDS011;6857;53.484;10.216;2024-01-10T10:40:14;12.83;;;6.73;;
13571;SDS011;6857;53.484;10.216;2024-01-10T10:42:40;11.73;;;6.13;;
13571;SDS011;6857;53.484;10.216;2024-01-10T10:45:11;13.47;;;7.20;;
13571;SDS011;6857;53.484;10.216;2024-01-10T10:47:41;14.07;;;6.77;;
13571;SDS011;6857;53.484;10.216;2024-01-10T10:50:12;11.67;;;6.30;;
13571;SDS011;6857;53.484;10.216;2024-01-10T10:52:41;11.60;;;7.23;;
13571;SDS011;6857;53.484;10.216;2024-01-10T10:55:10;14.07;;;7.27;;
13571;SDS011;6857;53.484;10.216;2024-01-10T10:57:37;12.03;;;6.90;;
13571;SDS011;6857;53.484;10.216;2024-01-10T11:00:05;16.83;;;8.67;;
13571;SDS011;6857;53.484;10.216;2024-01-10T11:02:32;16.97;;;8.43;;
13571;SDS011;6857;53.484;10.216;2024-01-10T11:04:57;11.97;;;6.47;;
13571;SDS011;6857;53.484;10.216;2024-01-10T11:07:24;12.57;;;6.50;;
13571;SDS011;6857;53.484;10.216;2024-01-10T11:09:51;10.10;;;5.27;;
13571;SDS011;6857;53.484;10.216;2024-01-10T11:12:27;13.37;;;6.60;;
13571;SDS011;6857;53.484;10.216;2024-01-10T11:15:56;10.33;;;6.37;;
13571;SDS011;6857;53.484;10.216;2024-01-10T11:24:15;9.80;;;5.93;;
13571;SDS011;6857;53.484;10.216;2024-01-10T11:26:41;9.43;;;5.73;;
13571;SDS011;6857;53.484;10.216;2024-01-10T11:29:06;8.63;;;5.27;;
13571;SDS011;6857;53.484;10.216;2024-01-10T11:31:32;12.27;;;5.77;;
13571;SDS011;6857;53.484;10.216;2024-01-10T11:34:00;8.70;;;5.30;;
13571;SDS011;6857;53.484;10.216;2024-01-10T11:36:26;9.20;;;5.20;;
13571;SDS011;6857;53.484;10.216;2024-01-10T11:41:25;9.37;;;5.50;;
13571;SDS011;6857;53.484;10.216;2024-01-10T11:47:09;8.27;;;5.10;;
13571;SDS011;6857;53.484;10.216;2024-01-10T11:49:28;9.07;;;5.40;;
13571;SDS011;6857;53.484;10.216;2024-01-10T11:51:55;9.27;;;5.10;;
13571;SDS011;6857;53.484;10.216;2024-01-10T11:55:04;10.13;;;5.70;;
13571;SDS011;6857;53.484;10.216;2024-01-10T11:57:11;11.67;;;6.57;;
13571;SDS011;6857;53.484;10.216;2024-01-10T11:59:40;15.60;;;7.90;;
13571;SDS011;6857;53.484;10.216;2024-01-10T12:02:07;14.67;;;6.97;;
13571;SDS011;6857;53.484;10.216;2024-01-10T12:04:33;9.00;;;5.33;;
13571;SDS011;6857;53.484;10.216;2024-01-10T12:06:59;13.30;;;6.87;;
13571;SDS011;6857;53.484;10.216;2024-01-10T12:09:27;10.93;;;5.90;;
13571;SDS011;6857;53.484;10.216;2024-01-10T12:11:52;13.17;;;7.47;;
13571;SDS011;6857;53.484;10.216;2024-01-10T12:14:18;13.10;;;6.33;;
13571;SDS011;6857;53.484;10.216;2024-01-10T12:16:45;13.20;;;6.97;;
13571;SDS011;6857;53.484;10.216;2024-01-10T12:19:11;13.10;;;6.97;;
13571;SDS011;6857;53.484;10.216;2024-01-10T12:21:37;11.87;;;6.77;;
13571;SDS011;6857;53.484;10.216;2024-01-10T12:24:05;9.93;;;5.50;;
13571;SDS011;6857;53.484;10.216;2024-01-10T12:26:31;10.10;;;5.50;;
13571;SDS011;6857;53.484;10.216;2024-01-10T12:28:58;11.20;;;5.80;;
13571;SDS011;6857;53.484;10.216;2024-01-10T12:31:28;8.33;;;5.43;;
13571;SDS011;6857;53.484;10.216;2024-01-10T12:33:54;13.03;;;6.27;;
13571;SDS011;6857;53.484;10.216;2024-01-10T12:36:20;9.60;;;4.93;;
13571;SDS011;6857;53.484;10.216;2024-01-10T12:38:46;9.73;;;5.30;;
13571;SDS011;6857;53.484;10.216;2024-01-10T12:41:14;13.33;;;5.97;;
13571;SDS011;6857;53.484;10.216;2024-01-10T12:43:40;12.47;;;6.60;;
13571;SDS011;6857;53.484;10.216;2024-01-10T12:46:06;10.27;;;5.70;;
13571;SDS011;6857;53.484;10.216;2024-01-10T12:48:36;10.27;;;5.57;;
13571;SDS011;6857;53.484;10.216;2024-01-10T12:51:05;11.03;;;5.90;;
13571;SDS011;6857;53.484;10.216;2024-01-10T12:53:36;8.80;;;5.10;;
13571;SDS011;6857;53.484;10.216;2024-01-10T12:56:03;10.17;;;5.53;;
13571;SDS011;6857;53.484;10.216;2024-01-10T12:58:30;8.50;;;4.80;;
13571;SDS011;6857;53.484;10.216;2024-01-10T13:00:56;9.77;;;6.37;;
13571;SDS011;6857;53.484;10.216;2024-01-10T13:03:22;12.23;;;5.40;;
13571;SDS011;6857;53.484;10.216;2024-01-10T13:05:48;8.80;;;4.97;;
13571;SDS011;6857;53.484;10.216;2024-01-10T13:08:14;7.17;;;4.73;;
13571;SDS011;6857;53.484;10.216;2024-01-10T13:10:41;10.37;;;5.37;;
13571;SDS011;6857;53.484;10.216;2024-01-10T13:13:07;10.33;;;5.53;;
13571;SDS011;6857;53.484;10.216;2024-01-10T13:15:32;8.60;;;5.10;;
13571;SDS011;6857;53.484;10.216;2024-01-10T13:17:58;8.10;;;5.10;;
13571;SDS011;6857;53.484;10.216;2024-01-10T13:20:24;7.57;;;4.93;;
13571;SDS011;6857;53.484;10.216;2024-01-10T13:22:50;8.37;;;5.00;;
13571;SDS011;6857;53.484;10.216;2024-01-10T13:25:16;6.93;;;4.27;;
13571;SDS011;6857;53.484;10.216;2024-01-10T13:27:42;11.97;;;6.33;;
13571;SDS011;6857;53.484;10.216;2024-01-10T13:30:08;11.13;;;6.60;;
13571;SDS011;6857;53.484;10.216;2024-01-10T13:32:36;8.60;;;5.30;;
13571;SDS011;6857;53.484;10.216;2024-01-10T13:35:02;8.00;;;4.73;;
13571;SDS011;6857;53.484;10.216;2024-01-10T13:37:30;11.17;;;5.30;;
13571;SDS011;6857;53.484;10.216;2024-01-10T13:39:57;7.53;;;4.87;;
13571;SDS011;6857;53.484;10.216;2024-01-10T13:42:23;9.77;;;5.60;;
13571;SDS011;6857;53.484;10.216;2024-01-10T13:44:49;9.67;;;5.83;;
13571;SDS011;6857;53.484;10.216;2024-01-10T13:47:15;10.57;;;6.13;;
13571;SDS011;6857;53.484;10.216;2024-01-10T13:49:43;9.27;;;5.30;;
13571;SDS011;6857;53.484;10.216;2024-01-10T13:52:08;24.03;;;8.10;;
13571;SDS011;6857;53.484;10.216;2024-01-10T13:54:34;8.57;;;5.17;;
13571;SDS011;6857;53.484;10.216;2024-01-10T13:56:59;6.63;;;4.67;;
13571;SDS011;6857;53.484;10.216;2024-01-10T13:59:25;8.37;;;5.60;;
13571;SDS011;6857;53.484;10.216;2024-01-10T14:01:50;6.83;;;4.20;;
13571;SDS011;6857;53.484;10.216;2024-01-10T14:04:16;6.80;;;4.50;;
13571;SDS011;6857;53.484;10.216;2024-01-10T14:06:41;7.03;;;4.73;;
13571;SDS011;6857;53.484;10.216;2024-01-10T14:09:07;10.07;;;4.70;;
13571;SDS011;6857;53.484;10.216;2024-01-10T14:11:35;7.13;;;3.80;;
13571;SDS011;6857;53.484;10.216;2024-01-10T14:14:00;6.80;;;4.30;;
13571;SDS011;6857;53.484;10.216;2024-01-10T14:16:26;5.07;;;3.43;;
13571;SDS011;6857;53.484;10.216;2024-01-10T14:18:52;6.37;;;4.13;;
13571;SDS011;6857;53.484;10.216;2024-01-10T14:21:20;9.07;;;5.00;;
13571;SDS011;6857;53.484;10.216;2024-01-10T14:23:46;6.77;;;4.13;;
13571;SDS011;6857;53.484;10.216;2024-01-10T14:26:12;8.63;;;5.23;;
13571;SDS011;6857;53.484;10.216;2024-01-10T14:28:39;41.77;;;17.57;;
13571;SDS011;6857;53.484;10.216;2024-01-10T14:31:04;5.57;;;3.97;;
13571;SDS011;6857;53.484;10.216;2024-01-10T14:33:30;8.40;;;4.53;;
13571;SDS011;6857;53.484;10.216;2024-01-10T14:35:56;10.83;;;5.50;;
13571;SDS011;6857;53.484;10.216;2024-01-10T14:38:21;12.07;;;5.83;;
13571;SDS011;6857;53.484;10.216;2024-01-10T14:40:47;6.57;;;4.60;;
13571;SDS011;6857;53.484;10.216;2024-01-10T14:43:12;7.57;;;4.13;;
13571;SDS011;6857;53.484;10.216;2024-01-10T14:45:38;7.60;;;4.43;;